Ocean Highway — H3IE — position and weather

sailwx.info

Track history (hours):
 
Tides and Currents Weather Stations Pressure Air Temp Water Temp Dewpoint Dewpoint Depression Visibility Wind Speed Wind Dir Waves Ship Positions

Ocean Highway

Last reported at 2014-Oct-03 02:21 UTC. Time now 2014-Oct-31 23:07 UTC.
Position N 50°14' W 001°24'.
Warning: this ship's position is 28 days out of date.

Length 179.1 m; beam 32.2 m.

Type: Cargo ship. MMSI: 353951000.

Date/timePositionNaut miles runAvg speedWind from/ knotsBaromVisibWave heightAir tempDewpointWater temp
2014-Oct-03 02:21N 50°14' W 001°24'2914.7
2014-Oct-03 00:22N 50°23' W 000°41'1315.9
2014-Oct-02 23:32N 50°26' W 000°21'1816.8
2014-Oct-02 22:29N 50°31' E 000°06'1617.4
2014-Oct-02 21:33N 50°36' E 000°30'1717.2
2014-Oct-02 20:33N 50°45' E 000°53'1616.4
2014-Oct-02 19:34N 50°56' E 001°12'1515.1
2014-Oct-02 18:33N 51°05' E 001°31'1414.4
2014-Oct-02 17:33N 51°16' E 001°47'1615.7
2014-Oct-02 16:33N 51°29' E 002°00'1716.7
2014-Oct-02 15:33N 51°42' E 002°18'1717.3
2014-Oct-02 14:33N 51°54' E 002°38'2617.4
2014-Oct-02 13:04N 52°14' E 003°04'7516.1
2014-Oct-02 08:24N 53°11' E 004°24'1315.7
2014-Oct-02 07:33N 53°23' E 004°33'1615.8
2014-Oct-02 06:33N 53°33' E 004°55'1717.2
2014-Oct-02 05:33N 53°38' E 005°22'1717.0
2014-Oct-02 04:33N 53°44' E 005°49'1414.1
2014-Oct-02 03:33N 53°43' E 006°13'1313.0
2014-Oct-02 02:31N 53°37' E 006°33'1515.6
2014-Oct-02 01:33N 53°27' E 006°53'1111.1
2014-Oct-02 00:33N 53°20' E 007°06'2 1.9
2014-Oct-01 23:31N 53°20' E 007°10'0 0.0
2014-Oct-01 22:31N 53°20' E 007°10'0 0.0
2014-Oct-01 21:31N 53°20' E 007°10'0 0.0
2014-Oct-01 20:31N 53°20' E 007°10'0 0.0
2014-Oct-01 19:31N 53°20' E 007°10'0 0.0
2014-Oct-01 18:31N 53°20' E 007°10'0 0.0
2014-Oct-01 17:31N 53°20' E 007°10'0 0.0
2014-Oct-01 16:31N 53°20' E 007°10'0 0.0
2014-Oct-01 15:31N 53°20' E 007°10'0 0.0
2014-Oct-01 14:31N 53°20' E 007°10'0 0.0
2014-Oct-01 13:31N 53°20' E 007°10'0 0.0
2014-Oct-01 12:31N 53°20' E 007°10'0 0.0
2014-Oct-01 11:31N 53°20' E 007°10'0 0.0
2014-Oct-01 10:31N 53°20' E 007°10'0 0.0
2014-Oct-01 09:31N 53°20' E 007°10'0 0.0
2014-Oct-01 08:31N 53°20' E 007°10'0 0.0
2014-Oct-01 07:31N 53°20' E 007°10'0 0.0
2014-Oct-01 06:31N 53°20' E 007°10'0 0.0
2014-Oct-01 05:28N 53°20' E 007°10'0 0.0
2014-Oct-01 04:31N 53°20' E 007°10'0 0.0
2014-Oct-01 03:31N 53°20' E 007°10'0 0.0
2014-Oct-01 02:31N 53°20' E 007°10'0 0.0
2014-Oct-01 01:31N 53°20' E 007°10'0 0.0
2014-Oct-01 00:31N 53°20' E 007°10'0 0.0
2014-Sep-30 23:31N 53°20' E 007°10'0 0.0
2014-Sep-30 22:31N 53°20' E 007°10'0 0.0
2014-Sep-30 21:31N 53°20' E 007°10'0 0.0
2014-Sep-30 20:28N 53°20' E 007°10'0 0.0
2014-Sep-30 19:31N 53°20' E 007°10'0 0.0
2014-Sep-30 18:31N 53°20' E 007°10'0 0.0
2014-Sep-30 17:31N 53°20' E 007°10'0 0.0
2014-Sep-30 16:31N 53°20' E 007°10'0 0.0
2014-Sep-30 15:31N 53°20' E 007°10'0 0.0
2014-Sep-30 14:31N 53°20' E 007°10'5 5.2
2014-Sep-30 13:33N 53°19' E 007°01'1413.8
2014-Sep-30 12:33N 53°30' E 006°47'1413.6
2014-Sep-30 11:33N 53°37' E 006°27'7 7.4
2014-Sep-30 10:33N 53°40' E 006°16'3 2.8
2014-Sep-30 09:33N 53°39' E 006°11'8 8.5
2014-Sep-30 08:33N 53°40' E 005°57'1716.7
2014-Sep-30 07:34N 53°34' E 005°30'1616.5
2014-Sep-30 06:33N 53°29' E 005°04'1515.5
2014-Sep-30 05:33N 53°20' E 004°42'1615.9
2014-Sep-30 04:34N 53°07' E 004°29'1615.5
2014-Sep-30 03:31N 52°52' E 004°16'1515.2
2014-Sep-30 02:33N 52°41' E 004°01'1715.2
2014-Sep-30 01:27N 52°29' E 003°41'1314.8
2014-Sep-30 00:33N 52°17' E 003°32'1614.6
2014-Sep-29 23:27N 52°02' E 003°24'1414.4
2014-Sep-29 22:31N 51°49' E 003°18'1414.3
2014-Sep-29 21:33N 51°36' E 003°11'1212.0
2014-Sep-29 20:33N 51°24' E 003°07'1817.8
2014-Sep-29 19:33N 51°26' E 003°36'1010.3
2014-Sep-29 18:33N 51°21' E 003°50'9 8.6
2014-Sep-29 17:34N 51°25' E 004°02'7 6.9
2014-Sep-29 16:34N 51°23' E 004°13'7 7.4
2014-Sep-29 15:34N 51°17' E 004°19'2 2.1
2014-Sep-29 14:34N 51°16' E 004°17'2 1.6
2014-Sep-29 13:33N 51°16' E 004°14'0 0.1
2014-Sep-29 12:32N 51°16' E 004°14'0 0.0
2014-Sep-29 11:32N 51°16' E 004°14'0 0.0
2014-Sep-29 10:29N 51°16' E 004°14'0 0.0
2014-Sep-29 09:32N 51°16' E 004°14'0 0.0
2014-Sep-29 08:32N 51°16' E 004°14'0 0.0
2014-Sep-29 07:29N 51°16' E 004°14'0 0.0
2014-Sep-29 06:32N 51°16' E 004°14'0 0.0
2014-Sep-29 05:32N 51°16' E 004°14'0 0.0
2014-Sep-29 04:32N 51°16' E 004°14'0 0.0
2014-Sep-29 03:32N 51°16' E 004°14'0 0.0
2014-Sep-29 02:32N 51°16' E 004°14'0 0.0
2014-Sep-29 01:32N 51°16' E 004°14'0 0.0
2014-Sep-29 00:29N 51°16' E 004°14'0 0.0
2014-Sep-28 23:32N 51°16' E 004°14'0 0.0
2014-Sep-28 22:32N 51°16' E 004°14'0 0.0
2014-Sep-28 21:32N 51°16' E 004°14'0 0.0
2014-Sep-28 20:29N 51°16' E 004°14'0 0.0
2014-Sep-28 19:32N 51°16' E 004°14'0 0.0
2014-Sep-28 18:32N 51°16' E 004°14'0 0.0
2014-Sep-28 17:32N 51°16' E 004°14'0 0.0
2014-Sep-28 16:32N 51°16' E 004°14'0 0.0
2014-Sep-28 15:32N 51°16' E 004°14'0 0.0
2014-Sep-28 14:32N 51°16' E 004°14'0 0.0
2014-Sep-28 13:29N 51°16' E 004°14'0 0.0
2014-Sep-28 12:32N 51°16' E 004°14'0 0.0
2014-Sep-28 11:29N 51°16' E 004°14'0 0.0
2014-Sep-28 10:32N 51°16' E 004°14'0 0.0
2014-Sep-28 09:32N 51°16' E 004°14'0 0.0
2014-Sep-28 08:32N 51°16' E 004°14'0 0.0
2014-Sep-28 07:32N 51°16' E 004°14'0 0.0
2014-Sep-28 06:32N 51°16' E 004°14'0 0.0
2014-Sep-28 05:32N 51°16' E 004°14'0 0.0
2014-Sep-28 04:29N 51°16' E 004°14'0 0.0
2014-Sep-28 03:32N 51°16' E 004°14'0 0.0
2014-Sep-28 02:32N 51°16' E 004°14'0 0.0
2014-Sep-28 01:32N 51°16' E 004°14'0 0.0
2014-Sep-28 00:32N 51°16' E 004°14'0 0.0
2014-Sep-27 23:32N 51°16' E 004°14'0 0.0
2014-Sep-27 22:32N 51°16' E 004°14'0 0.0
2014-Sep-27 21:32N 51°16' E 004°14'0 0.0
2014-Sep-27 20:32N 51°16' E 004°14'0 0.0
2014-Sep-27 19:32N 51°16' E 004°14'0 0.0
2014-Sep-27 18:32N 51°16' E 004°14'0 0.0
2014-Sep-27 17:32N 51°16' E 004°14'0 0.0
2014-Sep-27 16:32N 51°16' E 004°14'0 0.0
2014-Sep-27 15:32N 51°16' E 004°14'0 0.0
2014-Sep-27 14:29N 51°16' E 004°14'0 0.0
2014-Sep-27 13:29N 51°16' E 004°14'0 0.0
2014-Sep-27 12:32N 51°16' E 004°14'0 0.0
2014-Sep-27 11:32N 51°16' E 004°14'1 1.1
2014-Sep-27 10:33N 51°16' E 004°16'1 0.6
2014-Sep-27 09:33N 51°16' E 004°17'4 4.0
2014-Sep-27 08:34N 51°20' E 004°16'6 5.5
2014-Sep-27 07:33N 51°22' E 004°08'6 5.8
2014-Sep-27 06:33N 51°26' E 004°01'7 6.9
2014-Sep-27 05:33N 51°21' E 003°53'7 7.4
2014-Sep-27 04:34N 51°25' E 003°42'7 7.1
2014-Sep-27 03:34N 51°27' E 003°32'8 8.1
2014-Sep-27 02:33N 51°34' E 003°24'10 9.5
2014-Sep-27 01:31N 51°42' E 003°16'1111.5
2014-Sep-27 00:33N 51°53' E 003°19'1110.4
2014-Sep-26 23:33N 52°04' E 003°21'1717.0
2014-Sep-26 22:32N 52°21' E 003°26'2116.8
2014-Sep-26 21:17N 52°41' E 003°36'3416.0
2014-Sep-26 19:09N 53°05' E 004°15'1614.7
2014-Sep-26 18:04N 53°18' E 004°32'714.7
2014-Sep-26 17:34N 53°25' E 004°36'1413.7
2014-Sep-26 16:33N 53°32' E 004°55'1615.8
2014-Sep-26 15:34N 53°37' E 005°20'1616.2
2014-Sep-26 14:34N 53°43' E 005°46'1615.7
2014-Sep-26 13:32N 53°48' E 006°12'4914.6
2014-Sep-26 10:11N 53°59' E 007°32'13 1.9
2014-Sep-26 03:28N 53°54' E 007°53'0 0.0
2014-Sep-25 21:13N 53°54' E 007°53'0 0.0
2014-Sep-25 19:19N 53°54' E 007°53'0 0.0
2014-Sep-25 18:31N 53°54' E 007°53'0 0.0
2014-Sep-25 17:31N 53°54' E 007°53'0 0.0
2014-Sep-25 16:28N 53°54' E 007°53'0 0.0
2014-Sep-25 15:31N 53°54' E 007°53'0 0.0
2014-Sep-25 14:13N 53°54' E 007°53'0 0.0
2014-Sep-25 13:31N 53°54' E 007°53'0 0.1
2014-Sep-25 12:31N 53°54' E 007°53'0 0.0
2014-Sep-25 11:31N 53°54' E 007°53'0 0.1
2014-Sep-25 10:28N 53°54' E 007°53'0 0.0
2014-Sep-25 09:31N 53°54' E 007°53'0 0.1
2014-Sep-25 08:10N 53°54' E 007°53'0 0.0
2014-Sep-25 07:31N 53°54' E 007°53'0 0.0
2014-Sep-25 06:25N 53°54' E 007°53'0 0.0
2014-Sep-25 04:16N 53°54' E 007°53'0 0.0
2014-Sep-25 03:25N 53°54' E 007°53'0 0.0
2014-Sep-25 02:28N 53°54' E 007°53'0 0.0
2014-Sep-25 01:28N 53°54' E 007°53'0 0.0
2014-Sep-24 11:31N 53°54' E 007°53'0 0.0
2014-Sep-24 06:31N 53°54' E 007°53'0 0.0
2014-Sep-24 05:31N 53°54' E 007°53'0 0.1
2014-Sep-24 04:28N 53°54' E 007°53'0 0.0
2014-Sep-23 23:07N 53°54' E 007°53'0 0.0
2014-Sep-23 22:31N 53°54' E 007°53'0 0.0
2014-Sep-23 18:07N 53°54' E 007°53'0 0.0
2014-Sep-23 17:22N 53°54' E 007°53'0 0.0
2014-Sep-23 16:31N 53°54' E 007°53'0 0.0
2014-Sep-23 15:31N 53°54' E 007°53'0 0.1
2014-Sep-23 14:31N 53°54' E 007°52'0 0.0
2014-Sep-23 13:19N 53°54' E 007°52'0 0.1
2014-Sep-23 12:25N 53°54' E 007°53'  
Track history (hours):
 
Tides and Currents Weather Stations Pressure Air Temp Water Temp Dewpoint Dewpoint Depression Visibility Wind Speed Wind Dir Waves Ship Positions

Ocean Highway

Last reported at 2014-Oct-03 02:21 UTC. Time now 2014-Oct-31 23:07 UTC.
Position N 50°14' W 001°24'.
Warning: this ship's position is 28 days out of date.

Length 179.1 m; beam 32.2 m.

Type: Cargo ship. MMSI: 353951000.

Date/timePositionNaut miles runAvg speedWind from/ knotsBaromVisibWave heightAir tempDewpointWater temp
2014-Oct-03 02:21N 50°14' W 001°24'2914.7
2014-Oct-03 00:22N 50°23' W 000°41'1315.9
2014-Oct-02 23:32N 50°26' W 000°21'1816.8
2014-Oct-02 22:29N 50°31' E 000°06'1617.4
2014-Oct-02 21:33N 50°36' E 000°30'1717.2
2014-Oct-02 20:33N 50°45' E 000°53'1616.4
2014-Oct-02 19:34N 50°56' E 001°12'1515.1
2014-Oct-02 18:33N 51°05' E 001°31'1414.4
2014-Oct-02 17:33N 51°16' E 001°47'1615.7
2014-Oct-02 16:33N 51°29' E 002°00'1716.7
2014-Oct-02 15:33N 51°42' E 002°18'1717.3
2014-Oct-02 14:33N 51°54' E 002°38'2617.4
2014-Oct-02 13:04N 52°14' E 003°04'7516.1
2014-Oct-02 08:24N 53°11' E 004°24'1315.7
2014-Oct-02 07:33N 53°23' E 004°33'1615.8
2014-Oct-02 06:33N 53°33' E 004°55'1717.2
2014-Oct-02 05:33N 53°38' E 005°22'1717.0
2014-Oct-02 04:33N 53°44' E 005°49'1414.1
2014-Oct-02 03:33N 53°43' E 006°13'1313.0
2014-Oct-02 02:31N 53°37' E 006°33'1515.6
2014-Oct-02 01:33N 53°27' E 006°53'1111.1
2014-Oct-02 00:33N 53°20' E 007°06'2 1.9
2014-Oct-01 23:31N 53°20' E 007°10'0 0.0
2014-Oct-01 22:31N 53°20' E 007°10'0 0.0
2014-Oct-01 21:31N 53°20' E 007°10'0 0.0
2014-Oct-01 20:31N 53°20' E 007°10'0 0.0
2014-Oct-01 19:31N 53°20' E 007°10'0 0.0
2014-Oct-01 18:31N 53°20' E 007°10'0 0.0
2014-Oct-01 17:31N 53°20' E 007°10'0 0.0
2014-Oct-01 16:31N 53°20' E 007°10'0 0.0
2014-Oct-01 15:31N 53°20' E 007°10'0 0.0
2014-Oct-01 14:31N 53°20' E 007°10'0 0.0
2014-Oct-01 13:31N 53°20' E 007°10'0 0.0
2014-Oct-01 12:31N 53°20' E 007°10'0 0.0
2014-Oct-01 11:31N 53°20' E 007°10'0 0.0
2014-Oct-01 10:31N 53°20' E 007°10'0 0.0
2014-Oct-01 09:31N 53°20' E 007°10'0 0.0
2014-Oct-01 08:31N 53°20' E 007°10'0 0.0
2014-Oct-01 07:31N 53°20' E 007°10'0 0.0
2014-Oct-01 06:31N 53°20' E 007°10'0 0.0
2014-Oct-01 05:28N 53°20' E 007°10'0 0.0
2014-Oct-01 04:31N 53°20' E 007°10'0 0.0
2014-Oct-01 03:31N 53°20' E 007°10'0 0.0
2014-Oct-01 02:31N 53°20' E 007°10'0 0.0
2014-Oct-01 01:31N 53°20' E 007°10'0 0.0
2014-Oct-01 00:31N 53°20' E 007°10'0 0.0
2014-Sep-30 23:31N 53°20' E 007°10'0 0.0
2014-Sep-30 22:31N 53°20' E 007°10'0 0.0
2014-Sep-30 21:31N 53°20' E 007°10'0 0.0
2014-Sep-30 20:28N 53°20' E 007°10'0 0.0
2014-Sep-30 19:31N 53°20' E 007°10'0 0.0
2014-Sep-30 18:31N 53°20' E 007°10'0 0.0
2014-Sep-30 17:31N 53°20' E 007°10'0 0.0
2014-Sep-30 16:31N 53°20' E 007°10'0 0.0
2014-Sep-30 15:31N 53°20' E 007°10'0 0.0
2014-Sep-30 14:31N 53°20' E 007°10'5 5.2
2014-Sep-30 13:33N 53°19' E 007°01'1413.8
2014-Sep-30 12:33N 53°30' E 006°47'1413.6
2014-Sep-30 11:33N 53°37' E 006°27'7 7.4
2014-Sep-30 10:33N 53°40' E 006°16'3 2.8
2014-Sep-30 09:33N 53°39' E 006°11'8 8.5
2014-Sep-30 08:33N 53°40' E 005°57'1716.7
2014-Sep-30 07:34N 53°34' E 005°30'1616.5
2014-Sep-30 06:33N 53°29' E 005°04'1515.5
2014-Sep-30 05:33N 53°20' E 004°42'1615.9
2014-Sep-30 04:34N 53°07' E 004°29'1615.5
2014-Sep-30 03:31N 52°52' E 004°16'1515.2
2014-Sep-30 02:33N 52°41' E 004°01'1715.2
2014-Sep-30 01:27N 52°29' E 003°41'1314.8
2014-Sep-30 00:33N 52°17' E 003°32'1614.6
2014-Sep-29 23:27N 52°02' E 003°24'1414.4
2014-Sep-29 22:31N 51°49' E 003°18'1414.3
2014-Sep-29 21:33N 51°36' E 003°11'1212.0
2014-Sep-29 20:33N 51°24' E 003°07'1817.8
2014-Sep-29 19:33N 51°26' E 003°36'1010.3
2014-Sep-29 18:33N 51°21' E 003°50'9 8.6
2014-Sep-29 17:34N 51°25' E 004°02'7 6.9
2014-Sep-29 16:34N 51°23' E 004°13'7 7.4
2014-Sep-29 15:34N 51°17' E 004°19'2 2.1
2014-Sep-29 14:34N 51°16' E 004°17'2 1.6
2014-Sep-29 13:33N 51°16' E 004°14'0 0.1
2014-Sep-29 12:32N 51°16' E 004°14'0 0.0
2014-Sep-29 11:32N 51°16' E 004°14'0 0.0
2014-Sep-29 10:29N 51°16' E 004°14'0 0.0
2014-Sep-29 09:32N 51°16' E 004°14'0 0.0
2014-Sep-29 08:32N 51°16' E 004°14'0 0.0
2014-Sep-29 07:29N 51°16' E 004°14'0 0.0
2014-Sep-29 06:32N 51°16' E 004°14'0 0.0
2014-Sep-29 05:32N 51°16' E 004°14'0 0.0
2014-Sep-29 04:32N 51°16' E 004°14'0 0.0
2014-Sep-29 03:32N 51°16' E 004°14'0 0.0
2014-Sep-29 02:32N 51°16' E 004°14'0 0.0
2014-Sep-29 01:32N 51°16' E 004°14'0 0.0
2014-Sep-29 00:29N 51°16' E 004°14'0 0.0
2014-Sep-28 23:32N 51°16' E 004°14'0 0.0
2014-Sep-28 22:32N 51°16' E 004°14'0 0.0
2014-Sep-28 21:32N 51°16' E 004°14'0 0.0
2014-Sep-28 20:29N 51°16' E 004°14'0 0.0
2014-Sep-28 19:32N 51°16' E 004°14'0 0.0
2014-Sep-28 18:32N 51°16' E 004°14'0 0.0
2014-Sep-28 17:32N 51°16' E 004°14'0 0.0
2014-Sep-28 16:32N 51°16' E 004°14'0 0.0
2014-Sep-28 15:32N 51°16' E 004°14'0 0.0
2014-Sep-28 14:32N 51°16' E 004°14'0 0.0
2014-Sep-28 13:29N 51°16' E 004°14'0 0.0
2014-Sep-28 12:32N 51°16' E 004°14'0 0.0
2014-Sep-28 11:29N 51°16' E 004°14'0 0.0
2014-Sep-28 10:32N 51°16' E 004°14'0 0.0
2014-Sep-28 09:32N 51°16' E 004°14'0 0.0
2014-Sep-28 08:32N 51°16' E 004°14'0 0.0
2014-Sep-28 07:32N 51°16' E 004°14'0 0.0
2014-Sep-28 06:32N 51°16' E 004°14'0 0.0
2014-Sep-28 05:32N 51°16' E 004°14'0 0.0
2014-Sep-28 04:29N 51°16' E 004°14'0 0.0
2014-Sep-28 03:32N 51°16' E 004°14'0 0.0
2014-Sep-28 02:32N 51°16' E 004°14'0 0.0
2014-Sep-28 01:32N 51°16' E 004°14'0 0.0
2014-Sep-28 00:32N 51°16' E 004°14'0 0.0
2014-Sep-27 23:32N 51°16' E 004°14'0 0.0
2014-Sep-27 22:32N 51°16' E 004°14'0 0.0
2014-Sep-27 21:32N 51°16' E 004°14'0 0.0
2014-Sep-27 20:32N 51°16' E 004°14'0 0.0
2014-Sep-27 19:32N 51°16' E 004°14'0 0.0
2014-Sep-27 18:32N 51°16' E 004°14'0 0.0
2014-Sep-27 17:32N 51°16' E 004°14'0 0.0
2014-Sep-27 16:32N 51°16' E 004°14'0 0.0
2014-Sep-27 15:32N 51°16' E 004°14'0 0.0
2014-Sep-27 14:29N 51°16' E 004°14'0 0.0
2014-Sep-27 13:29N 51°16' E 004°14'0 0.0
2014-Sep-27 12:32N 51°16' E 004°14'0 0.0
2014-Sep-27 11:32N 51°16' E 004°14'1 1.1
2014-Sep-27 10:33N 51°16' E 004°16'1 0.6
2014-Sep-27 09:33N 51°16' E 004°17'4 4.0
2014-Sep-27 08:34N 51°20' E 004°16'6 5.5
2014-Sep-27 07:33N 51°22' E 004°08'6 5.8
2014-Sep-27 06:33N 51°26' E 004°01'7 6.9
2014-Sep-27 05:33N 51°21' E 003°53'7 7.4
2014-Sep-27 04:34N 51°25' E 003°42'7 7.1
2014-Sep-27 03:34N 51°27' E 003°32'8 8.1
2014-Sep-27 02:33N 51°34' E 003°24'10 9.5
2014-Sep-27 01:31N 51°42' E 003°16'1111.5
2014-Sep-27 00:33N 51°53' E 003°19'1110.4
2014-Sep-26 23:33N 52°04' E 003°21'1717.0
2014-Sep-26 22:32N 52°21' E 003°26'2116.8
2014-Sep-26 21:17N 52°41' E 003°36'3416.0
2014-Sep-26 19:09N 53°05' E 004°15'1614.7
2014-Sep-26 18:04N 53°18' E 004°32'714.7
2014-Sep-26 17:34N 53°25' E 004°36'1413.7
2014-Sep-26 16:33N 53°32' E 004°55'1615.8
2014-Sep-26 15:34N 53°37' E 005°20'1616.2
2014-Sep-26 14:34N 53°43' E 005°46'1615.7
2014-Sep-26 13:32N 53°48' E 006°12'4914.6
2014-Sep-26 10:11N 53°59' E 007°32'13 1.9
2014-Sep-26 03:28N 53°54' E 007°53'0 0.0
2014-Sep-25 21:13N 53°54' E 007°53'0 0.0
2014-Sep-25 19:19N 53°54' E 007°53'0 0.0
2014-Sep-25 18:31N 53°54' E 007°53'0 0.0
2014-Sep-25 17:31N 53°54' E 007°53'0 0.0
2014-Sep-25 16:28N 53°54' E 007°53'0 0.0
2014-Sep-25 15:31N 53°54' E 007°53'0 0.0
2014-Sep-25 14:13N 53°54' E 007°53'0 0.0
2014-Sep-25 13:31N 53°54' E 007°53'0 0.1
2014-Sep-25 12:31N 53°54' E 007°53'0 0.0
2014-Sep-25 11:31N 53°54' E 007°53'0 0.1
2014-Sep-25 10:28N 53°54' E 007°53'0 0.0
2014-Sep-25 09:31N 53°54' E 007°53'0 0.1
2014-Sep-25 08:10N 53°54' E 007°53'0 0.0
2014-Sep-25 07:31N 53°54' E 007°53'0 0.0
2014-Sep-25 06:25N 53°54' E 007°53'0 0.0
2014-Sep-25 04:16N 53°54' E 007°53'0 0.0
2014-Sep-25 03:25N 53°54' E 007°53'0 0.0
2014-Sep-25 02:28N 53°54' E 007°53'0 0.0
2014-Sep-25 01:28N 53°54' E 007°53'0 0.0
2014-Sep-24 11:31N 53°54' E 007°53'0 0.0
2014-Sep-24 06:31N 53°54' E 007°53'0 0.0
2014-Sep-24 05:31N 53°54' E 007°53'0 0.1
2014-Sep-24 04:28N 53°54' E 007°53'0 0.0
2014-Sep-23 23:07N 53°54' E 007°53'0 0.0
2014-Sep-23 22:31N 53°54' E 007°53'0 0.0
2014-Sep-23 18:07N 53°54' E 007°53'0 0.0
2014-Sep-23 17:22N 53°54' E 007°53'0 0.0
2014-Sep-23 16:31N 53°54' E 007°53'0 0.0
2014-Sep-23 15:31N 53°54' E 007°53'0 0.1
2014-Sep-23 14:31N 53°54' E 007°52'0 0.0
2014-Sep-23 13:19N 53°54' E 007°52'0 0.1
2014-Sep-23 12:25N 53°54' E 007°53'  

Dump ship's entire track history